Time;durP1;ratioP1;P1;durP2;ratioP2;P2;SDS_P1;SDS_P2;PMS_P1;PMS_P2;Temp;Humidity;BMP_temperature;BMP_pressure;BME280_temperature;BME280_humidity;BME280_pressure;Samples;Min_cycle;Max_cycle;Signal;HPM_P1;HPM_P2
2024/04/09 03:12:44;;;;;;;0.10;0.10;;;;;;;9.99;100.00;101725.91;1840602;77;26139;-69
2024/04/09 03:15:11;;;;;;;0.55;0.55;;;;;;;9.97;100.00;101732.92;1798808;78;20919;-70
2024/04/09 03:17:43;;;;;;;0.20;0.20;;;;;;;9.97;100.00;101735.52;1821658;78;21159;-69
2024/04/09 03:20:10;;;;;;;0.20;0.20;;;;;;;9.97;100.00;101735.97;1785589;80;21568;-70
2024/04/09 03:22:39;;;;;;;1.20;1.20;;;;;;;9.96;100.00;101732.98;1785679;80;20932;-69
2024/04/09 03:25:06;;;;;;;0.10;0.10;;;;;;;9.93;100.00;101739.16;1821246;78;20892;-69
2024/04/09 03:27:37;;;;;;;0.23;0.23;;;;;;;9.91;100.00;101735.80;1785564;80;20900;-69
2024/04/09 03:30:04;;;;;;;0.10;0.10;;;;;;;9.90;100.00;101736.70;1821888;78;21848;-69
2024/04/09 03:32:33;;;;;;;0.20;0.20;;;;;;;9.91;100.00;101734.52;1821501;78;20927;-71
2024/04/09 03:35:00;;;;;;;1.10;0.90;;;;;;;9.93;100.00;101739.61;1821654;78;20966;-69
2024/04/09 03:37:27;;;;;;;0.20;0.20;;;;;;;9.94;100.00;101744.73;1821837;78;20892;-69
2024/04/09 03:39:53;;;;;;;0.10;0.10;;;;;;;9.97;100.00;101738.11;1785613;80;21035;-69
2024/04/09 03:42:20;;;;;;;0.10;0.10;;;;;;;9.98;100.00;101742.39;1821640;78;21124;-69
2024/04/09 03:44:47;;;;;;;0.10;0.10;;;;;;;9.98;100.00;101750.17;1785787;80;20836;-70
2024/04/09 03:47:14;;;;;;;0.20;0.20;;;;;;;9.98;100.00;101757.95;1785550;80;20880;-69
2024/04/09 03:49:40;;;;;;;0.10;0.10;;;;;;;10.01;100.00;101761.70;1821863;78;20895;-70
2024/04/09 03:52:07;;;;;;;0.53;0.53;;;;;;;10.03;100.00;101759.87;1821705;78;20872;-70
2024/04/09 03:54:33;;;;;;;0.40;0.40;;;;;;;10.08;100.00;101768.27;1822064;78;21865;-69
2024/04/09 03:57:03;;;;;;;0.20;0.20;;;;;;;10.08;100.00;101771.34;1821666;78;20919;-69
2024/04/09 03:59:35;;;;;;;0.25;0.25;;;;;;;10.04;100.00;101768.49;1785482;80;20963;-69
2024/04/09 04:02:03;;;;;;;0.20;0.20;;;;;;;10.01;100.00;101778.56;1821709;78;20943;-69
2024/04/09 04:04:30;;;;;;;0.10;0.10;;;;;;;10.00;100.00;101785.09;1785519;80;20966;-71
2024/04/09 04:06:56;;;;;;;0.42;0.42;;;;;;;10.00;100.00;101783.34;1785314;80;21138;-71
2024/04/09 04:09:23;;;;;;;3.20;0.50;;;;;;;10.02;100.00;101784.56;1785913;80;21568;-70
2024/04/09 04:12:31;;;;;;;2.92;2.37;;;;;;;10.01;100.00;101779.85;1785171;80;20979;-70
2024/04/09 04:15:53;;;;;;;0.28;0.28;;;;;;;10.02;100.00;101785.41;1821550;78;21509;-69
2024/04/09 04:19:30;;;;;;;1.95;1.85;;;;;;;10.07;100.00;101785.20;1785443;80;20861;-70
2024/04/09 04:23:06;;;;;;;3.37;3.12;;;;;;;10.15;100.00;101785.71;1821028;78;21025;-69
2024/04/09 04:26:41;;;;;;;1.10;1.10;;;;;;;10.20;100.00;101783.77;1784724;80;20936;-68
2024/04/09 04:30:17;;;;;;;0.20;0.20;;;;;;;10.25;100.00;101784.83;1820941;78;21445;-70
2024/04/09 04:33:54;;;;;;;3.92;2.17;;;;;;;10.30;100.00;101778.98;1784793;80;20936;-69
2024/04/09 04:37:29;;;;;;;0.57;0.57;;;;;;;10.35;100.00;101781.73;1820935;78;20910;-70
2024/04/09 04:41:05;;;;;;;0.40;0.40;;;;;;;10.43;100.00;101785.28;1784586;80;20978;-69
2024/04/09 04:44:40;;;;;;;0.20;0.20;;;;;;;10.52;100.00;101788.73;1820906;78;20955;-69
2024/04/09 04:48:20;;;;;;;0.10;0.10;;;;;;;10.63;100.00;101787.74;1784773;80;20896;-69
2024/04/09 04:51:53;;;;;;;0.20;0.20;;;;;;;10.73;100.00;101784.24;1820855;78;20966;-69
2024/04/09 04:55:29;;;;;;;0.10;0.10;;;;;;;10.85;100.00;101787.56;1784712;80;21406;-69
2024/04/09 04:59:06;;;;;;;0.10;0.10;;;;;;;10.92;100.00;101796.25;1820746;78;20939;-69
2024/04/09 05:02:42;;;;;;;9.73;8.05;;;;;;;11.03;100.00;101808.27;1784911;80;21496;-69
2024/04/09 05:06:17;;;;;;;0.20;0.20;;;;;;;11.11;100.00;101810.47;1820914;78;20907;-70
2024/04/09 05:09:53;;;;;;;0.10;0.10;;;;;;;11.20;100.00;101810.48;1784668;80;20971;-69
2024/04/09 05:13:29;;;;;;;4.25;4.05;;;;;;;11.30;100.00;101816.41;1820861;78;20895;-70
2024/04/09 05:17:05;;;;;;;0.20;0.20;;;;;;;11.37;100.00;101815.65;1784721;80;21039;-70
2024/04/09 05:20:42;;;;;;;0.10;0.10;;;;;;;11.44;100.00;101816.56;1820798;78;20978;-70
2024/04/09 05:24:18;;;;;;;0.10;0.10;;;;;;;11.49;100.00;101816.31;1784711;80;20888;-69
2024/04/09 05:27:56;;;;;;;0.10;0.10;;;;;;;11.57;100.00;101823.28;1821032;78;20927;-70
2024/04/09 05:31:32;;;;;;;0.10;0.10;;;;;;;11.68;100.00;101823.55;1784616;80;20963;-69
2024/04/09 05:35:08;;;;;;;0.10;0.10;;;;;;;11.79;100.00;101817.37;1820666;78;20990;-70
2024/04/09 05:38:44;;;;;;;1.87;0.85;;;;;;;11.92;100.00;101811.05;1784645;79;21529;-70
2024/04/09 05:42:21;;;;;;;0.10;0.10;;;;;;;12.06;100.00;101811.98;1820809;78;20880;-69
2024/04/09 05:45:57;;;;;;;0.10;0.10;;;;;;;12.22;100.00;101811.98;1784644;80;21427;-69
2024/04/09 05:49:33;;;;;;;0.10;0.10;;;;;;;12.39;100.00;101811.07;1820849;78;20927;-69
2024/04/09 05:53:09;;;;;;;0.53;0.53;;;;;;;12.55;100.00;101815.35;1784662;80;21449;-70
2024/04/09 05:56:44;;;;;;;0.10;0.10;;;;;;;12.72;100.00;101816.55;1820608;78;20927;-70
2024/04/09 06:00:21;;;;;;;0.10;0.10;;;;;;;12.93;100.00;101827.96;1784641;80;21501;-70
2024/04/09 06:03:57;;;;;;;0.10;0.10;;;;;;;13.13;100.00;101824.62;1820794;78;20963;-69
2024/04/09 06:07:33;;;;;;;0.10;0.10;;;;;;;13.36;100.00;101816.77;1784357;80;20920;-69
2024/04/09 06:11:09;;;;;;;2.30;2.20;;;;;;;13.55;100.00;101822.56;1820535;78;20943;-72
2024/04/09 06:14:45;;;;;;;0.17;0.17;;;;;;;13.79;100.00;101819.77;1785458;79;21533;-72
2024/04/09 06:18:21;;;;;;;0.10;0.10;;;;;;;14.15;100.00;101831.48;1820926;78;21403;-72
2024/04/09 06:21:57;;;;;;;0.47;0.35;;;;;;;14.45;100.00;101827.45;1784443;79;21525;-74
2024/04/09 06:25:32;;;;;;;0.10;0.10;;;;;;;14.77;100.00;101827.53;1820815;78;21045;-74
2024/04/09 06:29:09;;;;;;;2.00;1.00;;;;;;;15.06;100.00;101836.08;1784721;79;20956;-73
2024/04/09 06:32:44;;;;;;;0.20;0.20;;;;;;;15.32;100.00;101836.47;1820932;78;21508;-72
2024/04/09 06:36:20;;;;;;;1.65;1.17;;;;;;;15.54;100.00;101834.60;1784679;80;21382;-76
2024/04/09 06:39:55;;;;;;;0.10;0.10;;;;;;;15.74;100.00;101840.59;1820865;78;21052;-74
